Time;durP1;ratioP1;P1;durP2;ratioP2;P2;SDS_P1;SDS_P2;PMS_P1;PMS_P2;Temp;Humidity;BMP_temperature;BMP_pressure;BME280_temperature;BME280_humidity;BME280_pressure;Samples;Min_cycle;Max_cycle;Signal;HPM_P1;HPM_P2
2021/04/12 00:04:42;;;;;;;7.35;4.50;;;;;;;19.75;52.86;99038.47;4368173;81;28626;-82
2021/04/12 00:11:34;;;;;;;7.97;4.72;;;;;;;19.54;52.55;99041.98;4392746;81;28635;-83
2021/04/12 00:17:42;;;;;;;9.83;5.65;;;;;;;19.27;53.82;99044.75;4342958;80;28629;-81
2021/04/12 00:23:49;;;;;;;10.58;5.90;;;;;;;18.80;54.87;99045.72;4378980;80;28548;-83
2021/04/12 00:30:03;;;;;;;8.95;5.60;;;;;;;18.97;52.60;99042.56;4402687;80;28565;-83
2021/04/12 00:36:22;;;;;;;8.90;4.10;;;;;;;18.60;54.85;99035.80;4339749;81;28595;-81
2021/04/12 00:42:58;;;;;;;8.10;4.22;;;;;;;18.76;53.97;99026.41;4335854;82;28596;-80
2021/04/12 00:49:13;;;;;;;;;;;;;;;18.87;53.01;99032.56;4364406;81;28599;-84
2021/04/12 00:55:30;;;;;;;8.10;5.05;;;;;;;18.32;55.37;99021.30;4285292;83;20232;-83
2021/04/12 01:02:09;;;;;;;10.08;4.97;;;;;;;18.31;55.01;99028.38;4342199;82;28926;-82
2021/04/12 01:08:52;;;;;;;6.90;4.72;;;;;;;18.28;54.50;99021.61;4310880;82;28564;-84
2021/04/12 01:15:19;;;;;;;7.28;4.50;;;;;;;18.02;54.66;99017.66;4287092;82;28596;-84
2021/04/12 01:21:58;;;;;;;;;;;;;;;18.02;54.59;99008.69;4396821;81;28611;-83
2021/04/12 01:28:51;;;;;;;8.75;5.42;;;;;;;18.04;54.94;99017.41;4358875;80;20745;-81
2021/04/12 01:35:35;;;;;;;8.13;5.35;;;;;;;18.11;54.88;99005.65;4266750;82;28547;-81
2021/04/12 01:41:58;;;;;;;7.90;4.35;;;;;;;17.93;55.34;99012.00;4422601;80;28583;-81
2021/04/12 01:48:40;;;;;;;7.83;3.92;;;;;;;18.05;54.33;99006.23;4329285;81;28660;-81
2021/04/12 01:55:09;;;;;;;11.25;6.42;;;;;;;18.13;53.41;99009.45;4346208;81;28932;-81
2021/04/12 02:01:32;;;;;;;10.98;6.15;;;;;;;18.00;53.65;99007.61;4352341;81;28606;-82
2021/04/12 02:08:00;;;;;;;12.53;7.05;;;;;;;18.01;54.06;98994.80;4310336;81;28681;-82
2021/04/12 02:14:45;;;;;;;12.50;6.28;;;;;;;18.00;54.35;98999.98;4301494;82;28622;-82
2021/04/12 02:21:09;;;;;;;7.03;4.40;;;;;;;17.98;54.49;98998.92;4282485;81;28601;-86
2021/04/12 02:27:23;;;;;;;7.67;4.08;;;;;;;17.80;54.66;99002.55;4302640;81;28551;-86
2021/04/12 02:33:42;;;;;;;7.85;4.58;;;;;;;17.69;53.53;98992.81;4307821;81;28658;-86
2021/04/12 02:40:22;;;;;;;9.58;6.33;;;;;;;17.99;53.81;98993.74;4339813;81;28553;-86
2021/04/12 02:47:12;;;;;;;11.15;6.85;;;;;;;18.04;53.56;98983.41;4289370;82;28547;-87
2021/04/12 02:53:46;;;;;;;11.25;6.45;;;;;;;18.08;54.34;98985.28;4297739;82;28600;-87
2021/04/12 03:00:12;;;;;;;8.38;5.90;;;;;;;17.92;54.36;98983.18;4303119;81;28548;-87
2021/04/12 03:07:01;;;;;;;14.33;7.97;;;;;;;17.25;56.89;98976.15;4315961;81;28582;-86
2021/04/12 03:13:42;;;;;;;13.10;7.55;;;;;;;17.12;59.48;98988.41;4315966;81;28556;-86
2021/04/12 03:20:10;;;;;;;11.10;6.65;;;;;;;17.21;60.31;98982.41;4308182;81;28602;-85
2021/04/12 03:26:43;;;;;;;16.02;8.73;;;;;;;17.83;56.19;98987.02;4301374;81;28544;-86
2021/04/12 03:33:03;;;;;;;14.50;7.85;;;;;;;17.62;56.78;98977.34;4301920;81;28571;-85
2021/04/12 03:39:13;;;;;;;12.47;7.80;;;;;;;17.20;57.95;98980.23;4288595;81;28594;-85
2021/04/12 03:45:27;;;;;;;14.50;9.38;;;;;;;16.89;60.81;98985.70;4299817;81;28612;-85
2021/04/12 03:52:08;;;;;;;17.30;8.90;;;;;;;16.72;61.26;98981.93;4310870;81;28636;-83
2021/04/12 03:58:34;;;;;;;8.90;5.78;;;;;;;17.06;59.87;98984.63;4290820;81;28602;-84
2021/04/12 04:05:06;;;;;;;14.00;8.63;;;;;;;17.19;56.93;98979.96;4312506;81;28543;-87
2021/04/12 04:11:19;;;;;;;11.35;7.80;;;;;;;17.16;57.97;98976.98;4311057;81;28597;-88
2021/04/12 04:17:57;;;;;;;12.18;7.70;;;;;;;17.10;57.46;98977.54;4327086;81;28650;-88
2021/04/12 04:24:55;;;;;;;15.75;9.78;;;;;;;16.82;58.00;98976.48;4307561;81;28544;-87
2021/04/12 04:31:24;;;;;;;9.65;6.83;;;;;;;17.02;59.44;98972.67;4377154;80;28579;-87
2021/04/12 04:37:45;;;;;;;15.53;8.75;;;;;;;16.95;58.47;98977.83;4354510;81;28636;-88
2021/04/12 04:44:18;;;;;;;13.48;8.33;;;;;;;17.32;57.44;98979.09;4351232;80;28657;-87
2021/04/12 04:50:51;;;;;;;15.72;10.15;;;;;;;17.45;56.00;98984.49;4346874;80;28662;-86
2021/04/12 04:57:45;;;;;;;15.15;9.00;;;;;;;17.82;55.84;98987.31;4353983;80;28592;-86
2021/04/12 05:04:09;;;;;;;17.62;9.83;;;;;;;17.60;56.35;99002.64;4353279;80;28641;-86
2021/04/12 05:10:39;;;;;;;14.28;8.58;;;;;;;18.06;54.84;99000.25;4364191;80;28589;-86
2021/04/12 05:17:07;;;;;;;15.53;8.70;;;;;;;18.37;55.39;99001.41;4364670;80;28547;-86
2021/04/12 05:23:33;;;;;;;17.57;10.88;;;;;;;18.50;54.56;98993.14;4357206;81;28544;-85
2021/04/12 05:30:17;;;;;;;20.08;11.18;;;;;;;18.54;55.56;98995.55;4355836;81;28583;-87
2021/04/12 05:37:06;;;;;;;15.72;9.48;;;;;;;18.11;55.65;99012.45;4354794;80;28539;-87
2021/04/12 05:43:28;;;;;;;16.10;9.35;;;;;;;19.17;52.15;98997.97;4345413;81;28591;-88
2021/04/12 05:49:54;;;;;;;16.50;10.48;;;;;;;19.29;51.91;98996.75;4361193;81;28599;-87
2021/04/12 05:56:13;;;;;;;21.77;10.78;;;;;;;19.39;52.62;98995.27;4354320;80;28617;-87
2021/04/12 06:02:27;;;;;;;26.90;12.70;;;;;;;20.01;50.68;98988.23;4350359;80;28621;-87
2021/04/12 06:09:07;;;;;;;18.37;10.68;;;;;;;20.01;50.17;98991.76;4353097;81;28558;-85
2021/04/12 06:15:52;;;;;;;25.35;12.10;;;;;;;20.69;47.16;98995.61;4356621;81;28547;-80
2021/04/12 06:22:35;;;;;;;19.27;11.10;;;;;;;20.88;46.22;98997.50;4374439;80;28591;-86
2021/04/12 06:29:01;;;;;;;15.03;9.03;;;;;;;20.20;47.04;98995.04;4354095;81;28575;-85
2021/04/12 06:35:33;;;;;;;17.65;9.75;;;;;;;20.87;45.04;98999.41;4342800;80;28579;-85
2021/04/12 06:42:13;;;;;;;14.58;8.65;;;;;;;21.77;42.39;98990.59;4349353;80;28588;-87
2021/04/12 06:48:45;;;;;;;13.53;8.78;;;;;;;22.72;41.33;98998.27;4346468;80;28565;-86
2021/04/12 06:55:19;;;;;;;16.67;9.03;;;;;;;22.98;40.37;99002.52;4321525;80;28668;-85
2021/04/12 07:02:02;;;;;;;16.80;8.83;;;;;;;23.79;39.48;99006.58;4370581;80;28579;-85
2021/04/12 07:08:23;;;;;;;12.45;7.95;;;;;;;23.85;39.54;99009.42;4372709;80;28617;-88
2021/04/12 07:45:53;;;;;;;;;;;;;;;;;;;;;
2021/04/12 07:52:16;;;;;;;14.65;7.22;;;;;;;24.41;37.64;99020.38;4305324;80;28593;-88
2021/04/12 07:59:16;;;;;;;15.28;7.45;;;;;;;21.45;43.97;99029.23;4288050;80;28566;-84
2021/04/12 08:16:47;;;;;;;15.53;7.37;;;;;;;20.89;47.01;99019.08;4469047;78;86756;-88
2021/04/12 08:23:10;;;;;;;11.80;5.95;;;;;;;22.08;43.38;99010.44;4463792;78;28547;-86
2021/04/12 08:29:58;;;;;;;11.22;4.25;;;;;;;22.59;41.14;99008.18;4481418;79;28539;-84
2021/04/12 08:36:33;;;;;;;10.48;4.20;;;;;;;22.09;38.53;99007.95;4484986;78;28599;-82
2021/04/12 08:43:09;;;;;;;10.03;4.23;;;;;;;22.41;38.36;99021.17;4485774;79;28682;-84
2021/04/12 08:50:06;;;;;;;8.35;3.87;;;;;;;23.10;38.32;99015.08;4405311;79;257441;-84
2021/04/12 08:56:46;;;;;;;6.97;3.05;;;;;;;23.58;36.03;99018.73;4338748;81;28578;-81
2021/04/12 09:03:31;;;;;;;8.83;4.67;;;;;;;23.97;34.88;99007.43;4370125;79;28550;-83
2021/04/12 09:10:14;;;;;;;10.00;4.57;;;;;;;23.05;36.83;99017.94;4358480;81;28587;-82
2021/04/12 09:16:42;;;;;;;8.33;3.80;;;;;;;23.05;36.83;99017.94;4337121;81;50460;-83
2021/04/12 09:23:03;;;;;;;8.48;3.75;;;;;;;22.58;37.66;99016.95;4332927;80;28629;-83
2021/04/12 09:29:41;;;;;;;9.15;3.80;;;;;;;21.88;38.83;99018.53;4352410;80;28595;-83
2021/04/12 09:36:14;;;;;;;8.60;3.60;;;;;;;22.58;37.90;99019.69;4370517;81;28657;-83
2021/04/12 09:42:42;;;;;;;7.83;3.87;;;;;;;22.86;38.56;99015.98;4353637;81;28618;-78
2021/04/12 09:49:27;;;;;;;10.15;3.75;;;;;;;22.16;39.78;99025.31;4368857;80;28603;-82
2021/04/12 09:56:02;;;;;;;7.05;3.77;;;;;;;22.74;38.97;99020.11;4363979;80;28587;-82
2021/04/12 10:02:57;;;;;;;12.07;4.53;;;;;;;22.18;40.44;99018.96;4350168;80;28638;-83
2021/04/12 10:09:26;;;;;;;6.58;3.37;;;;;;;22.51;40.50;99018.75;4358725;80;28612;-80
2021/04/12 10:15:40;;;;;;;6.90;3.40;;;;;;;22.01;40.96;99023.16;4352722;81;28578;-83
2021/04/12 10:21:50;;;;;;;4.87;2.60;;;;;;;22.13;38.77;99036.31;4368515;81;29642;-81
2021/04/12 10:27:58;;;;;;;6.53;2.67;;;;;;;22.13;37.99;99031.41;4361545;80;28629;-82
2021/04/12 10:34:34;;;;;;;7.47;2.70;;;;;;;21.84;38.78;99040.80;4360077;81;28641;-82
2021/04/12 10:41:05;;;;;;;5.92;2.65;;;;;;;22.10;39.06;99040.22;4365282;80;28622;-81
2021/04/12 10:47:29;;;;;;;7.55;2.50;;;;;;;22.25;37.97;99036.33;4340959;80;28576;-82
2021/04/12 10:53:55;;;;;;;5.58;2.58;;;;;;;22.08;37.40;99041.09;4346459;80;28636;-82
2021/04/12 11:00:27;;;;;;;8.70;3.17;;;;;;;22.25;37.85;99038.52;4341400;81;28958;-82
2021/04/12 11:07:08;;;;;;;5.30;2.52;;;;;;;24.19;35.32;99031.78;4356591;80;28599;-81
2021/04/12 11:13:27;;;;;;;5.87;2.50;;;;;;;24.69;35.07;99035.94;4362402;80;28550;-83
2021/04/12 11:20:13;;;;;;;5.80;2.30;;;;;;;24.39;34.00;99034.43;4272218;82;28588;-87
2021/04/12 11:26:56;;;;;;;4.22;2.15;;;;;;;24.78;33.55;99039.52;4240424;82;28627;-88
2021/04/12 11:33:07;;;;;;;4.83;2.15;;;;;;;24.96;33.53;99037.28;4244230;82;28619;-89
2021/04/12 11:39:20;;;;;;;5.53;2.00;;;;;;;25.24;32.38;99044.55;4229437;82;28622;-89
2021/04/12 11:45:45;;;;;;;4.05;1.90;;;;;;;26.11;30.83;99036.97;4217670;82;28552;-90
2021/04/12 11:52:29;;;;;;;5.37;2.67;;;;;;;26.01;31.06;99038.75;4232089;84;28549;-89
2021/04/12 11:58:44;;;;;;;3.90;2.40;;;;;;;26.51;30.72;99037.06;4255529;82;28576;-89
2021/04/12 12:13:10;;;;;;;4.22;2.20;;;;;;;25.82;31.09;99037.25;4003794;85;28607;-88
2021/04/12 12:19:18;;;;;;;4.30;2.40;;;;;;;24.47;32.10;99045.98;4202406;84;28591;-88
2021/04/12 12:25:49;;;;;;;6.42;2.95;;;;;;;25.71;31.13;99045.08;4190582;84;28580;-86
2021/04/12 12:39:32;;;;;;;5.97;3.83;;;;;;;25.80;31.61;99046.98;4596078;76;73259;-82
2021/04/12 12:45:49;;;;;;;6.35;3.10;;;;;;;25.91;31.86;99039.14;4467119;78;28586;-84
2021/04/12 12:52:47;;;;;;;6.33;3.58;;;;;;;26.06;30.94;99032.23;4431311;78;86985;-85
2021/04/12 12:59:32;;;;;;;6.55;3.42;;;;;;;26.05;32.21;99024.53;4248668;82;28611;-85
2021/04/12 13:05:37;;;;;;;7.10;3.70;;;;;;;25.86;32.20;99032.67;4402360;79;28578;-83
2021/04/12 13:11:52;;;;;;;6.47;3.70;;;;;;;25.80;31.85;99039.53;4405038;79;28554;-84
2021/04/12 13:18:23;;;;;;;6.25;3.80;;;;;;;26.24;31.32;99032.37;4402393;79;28583;-84
2021/04/12 13:24:34;;;;;;;5.33;3.20;;;;;;;26.05;32.07;99045.19;4390466;79;28549;-84
2021/04/12 13:30:45;;;;;;;5.47;3.40;;;;;;;25.61;32.03;99038.02;4381668;79;28567;-86
2021/04/12 13:37:01;;;;;;;7.10;3.55;;;;;;;26.39;30.80;99037.02;4444034;79;28547;-87
2021/04/12 13:43:08;;;;;;;5.45;2.95;;;;;;;24.88;32.19;99051.30;4439109;79;28559;-84
2021/04/12 13:49:34;;;;;;;5.45;2.67;;;;;;;26.01;31.08;99051.94;4407605;80;28537;-82
2021/04/12 13:55:45;;;;;;;6.33;3.17;;;;;;;26.39;30.06;99047.45;4379597;80;28594;-84
2021/04/12 14:02:01;;;;;;;5.92;3.80;;;;;;;25.97;31.11;99055.69;4393636;80;28598;-84
2021/04/12 14:08:23;;;;;;;5.90;3.35;;;;;;;25.03;32.42;99050.76;4387115;80;28594;-84
2021/04/12 14:14:33;;;;;;;6.03;3.70;;;;;;;25.76;31.67;99048.20;4347373;81;28548;-84
2021/04/12 14:20:46;;;;;;;6.78;3.90;;;;;;;24.87;32.47;99053.23;4292186;81;28574;-85
2021/04/12 14:27:05;;;;;;;6.47;3.80;;;;;;;25.75;31.99;99050.73;4384955;80;28610;-84
2021/04/12 14:33:13;;;;;;;7.12;3.95;;;;;;;25.76;31.63;99057.84;4379572;80;28616;-85
2021/04/12 14:39:28;;;;;;;6.67;3.80;;;;;;;25.82;31.19;99068.09;4374864;80;28597;-83
2021/04/12 14:45:39;;;;;;;7.33;3.60;;;;;;;25.78;31.69;99062.47;4366524;80;28611;-84
2021/04/12 14:52:22;;;;;;;7.62;3.62;;;;;;;25.96;31.50;99054.08;4310427;82;28584;-83
2021/04/12 14:58:43;;;;;;;8.43;4.17;;;;;;;25.17;32.31;99063.52;4324255;81;28560;-84
2021/04/12 15:04:49;;;;;;;7.72;4.30;;;;;;;25.52;32.09;99063.98;4385940;81;28564;-83
2021/04/12 15:10:57;;;;;;;8.63;4.28;;;;;;;25.45;31.82;99073.52;4270008;83;28580;-83
2021/04/12 15:17:46;;;;;;;7.30;4.10;;;;;;;25.27;32.38;99067.29;4257464;83;28580;-82
2021/04/12 15:24:08;;;;;;;10.93;5.75;;;;;;;24.98;32.89;99071.58;4240846;83;28578;-82
2021/04/12 15:30:18;;;;;;;18.35;10.93;;;;;;;25.27;33.31;99078.84;4293372;81;28546;-83
2021/04/12 15:36:46;;;;;;;15.48;9.95;;;;;;;22.79;38.71;99098.64;4362410;80;28678;-84
2021/04/12 15:43:00;;;;;;;17.67;10.40;;;;;;;23.80;37.47;99094.11;4362528;80;28544;-82
2021/04/12 15:49:09;;;;;;;21.80;13.03;;;;;;;23.74;38.66;99093.20;4353509;80;28551;-83
2021/04/12 15:55:26;;;;;;;19.45;12.00;;;;;;;22.73;42.16;99103.44;4231457;83;28567;-82
2021/04/12 16:01:39;;;;;;;21.35;12.60;;;;;;;21.79;46.24;99138.86;4352560;80;28536;-83
2021/04/12 16:07:56;;;;;;;20.48;13.50;;;;;;;21.30;50.16;99156.94;4356942;81;28580;-84
2021/04/12 16:14:11;;;;;;;20.70;13.35;;;;;;;20.50;55.12;99160.88;4286419;80;28602;-83
2021/04/12 16:20:34;;;;;;;20.75;12.40;;;;;;;19.94;58.10;99165.13;4335151;81;28963;-82
2021/04/12 16:27:10;;;;;;;18.35;10.95;;;;;;;20.67;54.15;99174.02;4341981;80;28604;-84
2021/04/12 16:33:22;;;;;;;14.87;10.18;;;;;;;20.67;54.65;99200.50;4354708;82;28590;-82
2021/04/12 16:39:35;;;;;;;18.10;10.60;;;;;;;19.83;57.71;99214.85;4382165;80;28602;-84
2021/04/12 16:45:43;;;;;;;15.05;10.23;;;;;;;18.81;62.80;99225.73;4383616;80;28567;-87
2021/04/12 16:52:11;;;;;;;14.53;9.13;;;;;;;19.28;60.26;99219.45;4342681;80;28603;-80
2021/04/12 16:58:51;;;;;;;14.07;8.60;;;;;;;19.20;60.09;99231.75;4310280;80;28590;-81
2021/04/12 17:05:16;;;;;;;12.63;7.80;;;;;;;19.06;60.42;99238.95;4397052;80;28632;-93
2021/04/12 17:11:26;;;;;;;17.37;8.73;;;;;;;18.18;66.12;99272.80;4382577;79;28583;-86
2021/04/12 17:17:55;;;;;;;13.68;9.10;;;;;;;19.31;58.14;99276.12;4377572;80;28614;-88
2021/04/12 17:24:27;;;;;;;19.48;10.13;;;;;;;19.04;59.29;99288.27;4387467;80;28570;-84
2021/04/12 17:30:50;;;;;;;16.95;11.33;;;;;;;18.47;62.33;99294.48;4383800;80;28577;-85
2021/04/12 17:36:56;;;;;;;20.05;12.47;;;;;;;18.05;64.99;99297.31;4368484;79;28574;-84
2021/04/12 17:43:36;;;;;;;;;;;;;;;;;;;;;
2021/04/12 17:50:00;;;;;;;29.02;16.75;;;;;;;16.72;73.28;99323.98;4481100;78;85543;-84
2021/04/12 17:56:15;;;;;;;27.45;16.62;;;;;;;16.77;72.17;99336.23;4413094;80;28608;-83
2021/04/12 18:02:32;;;;;;;28.57;16.53;;;;;;;16.42;75.48;99343.09;4405141;80;28582;-85
2021/04/12 18:08:51;;;;;;;26.52;17.02;;;;;;;16.88;71.32;99352.02;4425287;80;28596;-85
2021/04/12 18:15:21;;;;;;;32.20;19.25;;;;;;;16.98;69.47;99364.83;4420795;80;28615;-85
2021/04/12 18:21:35;;;;;;;31.50;18.23;;;;;;;17.34;66.37;99355.98;4423643;80;28658;-83
2021/04/12 18:27:53;;;;;;;36.15;21.40;;;;;;;17.00;69.00;99370.28;4401886;80;28537;-83
2021/04/12 18:34:02;;;;;;;40.75;22.20;;;;;;;16.88;67.47;99391.39;4415928;80;28649;-83
2021/04/12 18:40:11;;;;;;;39.58;21.27;;;;;;;17.91;61.95;99388.16;4401277;80;28656;-86
2021/04/12 18:46:28;;;;;;;41.28;23.40;;;;;;;16.81;67.08;99402.49;4411898;80;28577;-89
2021/04/12 18:52:41;;;;;;;45.52;24.27;;;;;;;16.66;66.73;99402.39;4416179;80;28662;-80
2021/04/12 18:59:10;;;;;;;45.73;24.25;;;;;;;16.49;68.09;99406.11;4397261;80;28766;-88
2021/04/12 19:05:52;;;;;;;43.95;24.45;;;;;;;16.64;66.76;99415.41;4384868;80;28568;-83
2021/04/12 19:12:05;;;;;;;36.90;19.87;;;;;;;16.84;64.61;99423.68;4414320;80;28545;-88
2021/04/12 19:18:35;;;;;;;46.42;25.90;;;;;;;16.77;64.72;99434.50;4391922;80;28654;-89
2021/04/12 19:25:04;;;;;;;52.45;27.60;;;;;;;16.90;63.57;99440.02;4399027;80;28650;-83
2021/04/12 19:31:32;;;;;;;40.78;22.48;;;;;;;15.38;77.05;99466.06;4384902;79;28623;-81
2021/04/12 19:38:02;;;;;;;44.65;24.12;;;;;;;16.15;68.53;99466.09;4397169;79;28621;-83
2021/04/12 19:44:17;;;;;;;39.27;21.52;;;;;;;15.09;78.15;99470.30;4410049;79;28572;-86
2021/04/12 19:50:35;;;;;;;35.58;19.82;;;;;;;15.64;72.76;99471.25;4410721;80;28575;-86
2021/04/12 19:57:08;;;;;;;40.15;20.90;;;;;;;16.00;69.15;99470.83;4430981;80;29006;-84
2021/04/12 20:03:32;;;;;;;28.30;15.90;;;;;;;15.86;69.74;99471.19;4421805;79;28537;-87
2021/04/12 20:09:56;;;;;;;28.35;16.32;;;;;;;14.61;80.13;99484.20;4420811;79;28592;-85
2021/04/12 20:16:03;;;;;;;22.98;13.38;;;;;;;14.55;78.21;99492.77;4413517;80;28615;-89
2021/04/12 20:22:20;;;;;;;21.15;12.55;;;;;;;14.22;80.70;99497.09;4441375;79;28610;-90
2021/04/12 20:28:50;;;;;;;24.87;13.18;;;;;;;14.71;77.32;99500.59;4433197;79;28590;-86
2021/04/12 20:35:08;;;;;;;22.17;12.35;;;;;;;13.88;86.22;99498.39;4433194;80;28581;-86
2021/04/12 20:41:41;;;;;;;20.80;13.05;;;;;;;13.86;84.90;99508.63;4413494;80;28569;-88
2021/04/12 20:48:04;;;;;;;31.07;17.17;;;;;;;13.55;88.24;99520.98;4402758;80;29067;-88
2021/04/12 20:54:32;;;;;;;41.80;21.82;;;;;;;15.17;71.61;99517.27;4415144;80;28575;-90
2021/04/12 21:00:43;;;;;;;34.83;18.12;;;;;;;13.75;86.46;99521.95;4395359;80;29100;-86
2021/04/12 21:07:08;;;;;;;39.27;20.48;;;;;;;14.42;76.42;99514.75;4421484;80;28568;-85
2021/04/12 21:13:19;;;;;;;38.20;19.47;;;;;;;14.81;74.12;99528.39;4434741;80;38300;-84
2021/04/12 21:19:42;;;;;;;34.33;18.25;;;;;;;14.21;79.52;99522.50;4459912;80;28567;-86
2021/04/12 21:26:06;;;;;;;27.10;16.07;;;;;;;13.55;86.08;99533.69;4401527;80;28549;-89
2021/04/12 21:32:25;;;;;;;29.45;16.82;;;;;;;13.25;86.86;99543.04;4434430;80;28582;-88
2021/04/12 21:38:32;;;;;;;25.27;14.03;;;;;;;12.30;98.13;99557.78;4397492;80;28638;-89
2021/04/12 21:44:51;;;;;;;32.95;18.17;;;;;;;13.75;80.14;99540.03;4418523;80;28596;-88
2021/04/12 21:50:55;;;;;;;38.30;20.45;;;;;;;14.67;71.54;99552.23;4311577;81;28620;-88
2021/04/12 21:57:36;;;;;;;37.65;20.17;;;;;;;14.44;73.65;99565.36;4274263;82;28619;-88
2021/04/12 22:04:08;;;;;;;39.75;21.75;;;;;;;13.90;77.83;99570.59;4281984;82;28554;-87
2021/04/12 22:10:15;;;;;;;37.58;20.60;;;;;;;12.95;89.97;99567.44;4292717;81;28566;-87
2021/04/12 22:16:35;;;;;;;36.28;19.85;;;;;;;13.61;88.57;99570.03;4252559;81;28577;-86
2021/04/12 22:22:50;;;;;;;32.70;18.00;;;;;;;13.79;85.18;99585.25;4290498;82;28546;-89
2021/04/12 22:29:21;;;;;;;32.00;16.42;;;;;;;14.30;78.69;99593.23;4295528;82;28569;-88
2021/04/12 22:42:13;;;;;;;31.40;16.40;;;;;;;13.30;97.77;99607.66;4277241;82;28577;-87
2021/04/12 22:48:20;;;;;;;28.17;15.15;;;;;;;13.16;95.72;99620.05;4317295;81;28574;-86
2021/04/12 22:54:32;;;;;;;28.87;15.63;;;;;;;13.02;96.64;99619.44;4315542;81;28556;-88
2021/04/12 23:00:56;;;;;;;24.07;14.55;;;;;;;13.38;90.88;99623.00;4319457;81;28585;-87
2021/04/12 23:06:57;;;;;;;18.07;10.70;;;;;;;13.20;89.17;99625.80;4303485;82;28595;-87
2021/04/12 23:13:10;;;;;;;22.77;12.40;;;;;;;12.82;87.13;99623.28;4285610;83;28558;-87
2021/04/12 23:19:21;;;;;;;15.30;8.68;;;;;;;13.02;89.14;99621.34;4289455;81;28640;-88
2021/04/12 23:25:30;;;;;;;14.58;8.58;;;;;;;13.38;83.17;99620.81;4290380;83;28557;-88
2021/04/12 23:31:32;;;;;;;15.30;8.60;;;;;;;12.44;91.08;99630.39;4266789;83;28554;-88
2021/04/12 23:37:47;;;;;;;15.45;7.97;;;;;;;12.64;85.57;99632.27;4302647;82;28595;-84
2021/04/12 23:44:20;;;;;;;14.10;8.10;;;;;;;12.67;84.29;99631.80;4276980;82;28551;-86
2021/04/12 23:50:27;;;;;;;14.07;8.80;;;;;;;11.99;91.16;99645.86;4415102;80;28664;-87
2021/04/12 23:56:46;;;;;;;12.90;7.55;;;;;;;12.23;91.06;99645.47;4328834;81;28549;-87
